sensor_id;sensor_type;location;lat;lon;timestamp;P1;durP1;ratioP1;P2;durP2;ratioP2
21038;SDS011;10678;51.002;4.786;2024-02-21T00:00:46;14.73;;;5.25;;
21038;SDS011;10678;51.002;4.786;2024-02-21T00:03:12;20.25;;;5.82;;
21038;SDS011;10678;51.002;4.786;2024-02-21T00:05:37;16.70;;;6.05;;
21038;SDS011;10678;51.002;4.786;2024-02-21T00:08:03;18.63;;;6.00;;
21038;SDS011;10678;51.002;4.786;2024-02-21T00:10:29;20.55;;;6.07;;
21038;SDS011;10678;51.002;4.786;2024-02-21T00:12:56;20.83;;;6.15;;
21038;SDS011;10678;51.002;4.786;2024-02-21T00:15:22;26.52;;;6.82;;
21038;SDS011;10678;51.002;4.786;2024-02-21T00:17:48;17.67;;;6.45;;
21038;SDS011;10678;51.002;4.786;2024-02-21T00:20:14;18.20;;;6.03;;
21038;SDS011;10678;51.002;4.786;2024-02-21T00:22:39;18.35;;;5.22;;
21038;SDS011;10678;51.002;4.786;2024-02-21T00:25:05;19.05;;;6.50;;
21038;SDS011;10678;51.002;4.786;2024-02-21T00:27:31;17.98;;;5.63;;
21038;SDS011;10678;51.002;4.786;2024-02-21T00:29:57;17.38;;;5.45;;
21038;SDS011;10678;51.002;4.786;2024-02-21T00:32:23;21.30;;;6.53;;
21038;SDS011;10678;51.002;4.786;2024-02-21T00:34:48;20.75;;;6.55;;
21038;SDS011;10678;51.002;4.786;2024-02-21T00:37:14;18.92;;;6.20;;
21038;SDS011;10678;51.002;4.786;2024-02-21T00:39:39;17.42;;;5.93;;
21038;SDS011;10678;51.002;4.786;2024-02-21T00:42:05;19.67;;;6.68;;
21038;SDS011;10678;51.002;4.786;2024-02-21T00:44:32;18.95;;;6.18;;
21038;SDS011;10678;51.002;4.786;2024-02-21T00:46:57;18.77;;;6.25;;
21038;SDS011;10678;51.002;4.786;2024-02-21T00:49:23;18.42;;;6.55;;
21038;SDS011;10678;51.002;4.786;2024-02-21T00:51:49;15.98;;;5.95;;
21038;SDS011;10678;51.002;4.786;2024-02-21T00:54:15;20.23;;;6.63;;
21038;SDS011;10678;51.002;4.786;2024-02-21T00:56:41;23.70;;;5.75;;
21038;SDS011;10678;51.002;4.786;2024-02-21T00:59:07;16.75;;;5.50;;
21038;SDS011;10678;51.002;4.786;2024-02-21T01:01:33;17.23;;;5.35;;
21038;SDS011;10678;51.002;4.786;2024-02-21T01:03:58;12.48;;;5.07;;
21038;SDS011;10678;51.002;4.786;2024-02-21T01:06:24;16.95;;;5.60;;
21038;SDS011;10678;51.002;4.786;2024-02-21T01:08:50;14.38;;;5.40;;
21038;SDS011;10678;51.002;4.786;2024-02-21T01:11:15;18.50;;;5.40;;
21038;SDS011;10678;51.002;4.786;2024-02-21T01:13:41;14.10;;;4.97;;
21038;SDS011;10678;51.002;4.786;2024-02-21T01:16:07;16.02;;;4.75;;
21038;SDS011;10678;51.002;4.786;2024-02-21T01:18:33;19.27;;;5.25;;
21038;SDS011;10678;51.002;4.786;2024-02-21T01:20:59;17.00;;;5.40;;
21038;SDS011;10678;51.002;4.786;2024-02-21T01:23:24;13.10;;;5.03;;
21038;SDS011;10678;51.002;4.786;2024-02-21T01:25:50;13.43;;;5.10;;
21038;SDS011;10678;51.002;4.786;2024-02-21T01:28:16;10.35;;;4.57;;
21038;SDS011;10678;51.002;4.786;2024-02-21T01:30:42;15.73;;;4.68;;
21038;SDS011;10678;51.002;4.786;2024-02-21T01:33:08;15.73;;;5.35;;
21038;SDS011;10678;51.002;4.786;2024-02-21T01:35:34;14.93;;;5.00;;
21038;SDS011;10678;51.002;4.786;2024-02-21T01:38:01;16.33;;;5.18;;
21038;SDS011;10678;51.002;4.786;2024-02-21T01:40:26;17.58;;;6.55;;
21038;SDS011;10678;51.002;4.786;2024-02-21T01:42:53;16.63;;;6.45;;
21038;SDS011;10678;51.002;4.786;2024-02-21T01:45:20;22.42;;;7.60;;
21038;SDS011;10678;51.002;4.786;2024-02-21T01:47:46;21.55;;;7.55;;
21038;SDS011;10678;51.002;4.786;2024-02-21T01:50:13;18.52;;;7.60;;
21038;SDS011;10678;51.002;4.786;2024-02-21T01:52:40;17.58;;;6.80;;
21038;SDS011;10678;51.002;4.786;2024-02-21T01:55:08;20.20;;;8.23;;
21038;SDS011;10678;51.002;4.786;2024-02-21T01:57:35;21.83;;;7.70;;
21038;SDS011;10678;51.002;4.786;2024-02-21T02:00:01;19.40;;;8.18;;
21038;SDS011;10678;51.002;4.786;2024-02-21T02:02:28;19.60;;;7.70;;
21038;SDS011;10678;51.002;4.786;2024-02-21T02:04:54;24.48;;;7.63;;
21038;SDS011;10678;51.002;4.786;2024-02-21T02:07:21;21.65;;;8.05;;
21038;SDS011;10678;51.002;4.786;2024-02-21T02:09:46;20.83;;;7.53;;
21038;SDS011;10678;51.002;4.786;2024-02-21T02:12:12;18.73;;;8.07;;
21038;SDS011;10678;51.002;4.786;2024-02-21T02:14:38;18.35;;;7.38;;
21038;SDS011;10678;51.002;4.786;2024-02-21T02:17:03;26.83;;;7.55;;
21038;SDS011;10678;51.002;4.786;2024-02-21T02:19:30;20.05;;;8.00;;
21038;SDS011;10678;51.002;4.786;2024-02-21T02:21:58;17.88;;;7.88;;
21038;SDS011;10678;51.002;4.786;2024-02-21T02:24:34;21.20;;;8.07;;
21038;SDS011;10678;51.002;4.786;2024-02-21T02:26:59;23.38;;;7.55;;
21038;SDS011;10678;51.002;4.786;2024-02-21T02:29:25;19.83;;;8.18;;
21038;SDS011;10678;51.002;4.786;2024-02-21T02:31:51;27.40;;;7.72;;
21038;SDS011;10678;51.002;4.786;2024-02-21T02:34:16;17.60;;;7.10;;
21038;SDS011;10678;51.002;4.786;2024-02-21T02:36:42;18.33;;;7.28;;
21038;SDS011;10678;51.002;4.786;2024-02-21T02:39:07;19.00;;;7.68;;
21038;SDS011;10678;51.002;4.786;2024-02-21T02:41:34;22.35;;;7.30;;
21038;SDS011;10678;51.002;4.786;2024-02-21T02:44:01;18.42;;;6.72;;
21038;SDS011;10678;51.002;4.786;2024-02-21T02:46:26;19.17;;;6.68;;
21038;SDS011;10678;51.002;4.786;2024-02-21T02:48:52;23.73;;;7.65;;
21038;SDS011;10678;51.002;4.786;2024-02-21T02:51:17;15.85;;;7.10;;
21038;SDS011;10678;51.002;4.786;2024-02-21T02:53:43;19.58;;;7.20;;
21038;SDS011;10678;51.002;4.786;2024-02-21T02:56:13;17.02;;;7.95;;
21038;SDS011;10678;51.002;4.786;2024-02-21T02:58:39;19.15;;;7.55;;
21038;SDS011;10678;51.002;4.786;2024-02-21T03:01:06;20.00;;;7.80;;
21038;SDS011;10678;51.002;4.786;2024-02-21T03:03:32;23.75;;;8.35;;
21038;SDS011;10678;51.002;4.786;2024-02-21T03:05:58;21.02;;;7.13;;
21038;SDS011;10678;51.002;4.786;2024-02-21T03:08:23;16.33;;;6.82;;
21038;SDS011;10678;51.002;4.786;2024-02-21T03:10:49;17.95;;;7.43;;
21038;SDS011;10678;51.002;4.786;2024-02-21T03:13:14;14.68;;;6.72;;
21038;SDS011;10678;51.002;4.786;2024-02-21T03:15:40;19.10;;;7.50;;
21038;SDS011;10678;51.002;4.786;2024-02-21T03:18:05;20.50;;;6.88;;
21038;SDS011;10678;51.002;4.786;2024-02-21T03:20:31;23.40;;;7.32;;
21038;SDS011;10678;51.002;4.786;2024-02-21T03:22:57;20.73;;;7.55;;
21038;SDS011;10678;51.002;4.786;2024-02-21T03:25:23;17.58;;;7.10;;
21038;SDS011;10678;51.002;4.786;2024-02-21T03:27:48;15.15;;;6.25;;
21038;SDS011;10678;51.002;4.786;2024-02-21T03:30:14;17.63;;;7.13;;
21038;SDS011;10678;51.002;4.786;2024-02-21T03:32:40;18.73;;;6.45;;
21038;SDS011;10678;51.002;4.786;2024-02-21T03:35:05;26.20;;;7.05;;
21038;SDS011;10678;51.002;4.786;2024-02-21T03:37:31;17.10;;;6.85;;
21038;SDS011;10678;51.002;4.786;2024-02-21T03:39:57;20.58;;;6.68;;
21038;SDS011;10678;51.002;4.786;2024-02-21T03:42:22;19.40;;;8.07;;
21038;SDS011;10678;51.002;4.786;2024-02-21T03:44:48;14.60;;;6.47;;
21038;SDS011;10678;51.002;4.786;2024-02-21T03:47:13;14.73;;;6.10;;
21038;SDS011;10678;51.002;4.786;2024-02-21T03:49:39;18.70;;;7.10;;
21038;SDS011;10678;51.002;4.786;2024-02-21T03:52:05;17.73;;;6.70;;
21038;SDS011;10678;51.002;4.786;2024-02-21T03:54:30;20.30;;;6.70;;
21038;SDS011;10678;51.002;4.786;2024-02-21T03:56:56;19.13;;;7.53;;
21038;SDS011;10678;51.002;4.786;2024-02-21T03:59:22;21.67;;;7.18;;
21038;SDS011;10678;51.002;4.786;2024-02-21T04:01:51;17.20;;;6.90;;
21038;SDS011;10678;51.002;4.786;2024-02-21T04:04:17;13.85;;;6.45;;
21038;SDS011;10678;51.002;4.786;2024-02-21T04:06:47;16.05;;;6.70;;
21038;SDS011;10678;51.002;4.786;2024-02-21T04:09:16;16.20;;;6.85;;
21038;SDS011;10678;51.002;4.786;2024-02-21T04:11:41;17.50;;;7.63;;
21038;SDS011;10678;51.002;4.786;2024-02-21T04:14:07;15.77;;;8.20;;
21038;SDS011;10678;51.002;4.786;2024-02-21T04:16:34;17.33;;;7.15;;
21038;SDS011;10678;51.002;4.786;2024-02-21T04:18:59;17.95;;;7.72;;
21038;SDS011;10678;51.002;4.786;2024-02-21T04:21:26;16.75;;;6.72;;
21038;SDS011;10678;51.002;4.786;2024-02-21T04:23:52;16.70;;;6.85;;
21038;SDS011;10678;51.002;4.786;2024-02-21T04:26:18;20.95;;;7.13;;
21038;SDS011;10678;51.002;4.786;2024-02-21T04:28:44;15.88;;;6.80;;
21038;SDS011;10678;51.002;4.786;2024-02-21T04:31:10;17.63;;;6.47;;
21038;SDS011;10678;51.002;4.786;2024-02-21T04:33:36;18.63;;;7.75;;
21038;SDS011;10678;51.002;4.786;2024-02-21T04:36:01;18.60;;;6.90;;
21038;SDS011;10678;51.002;4.786;2024-02-21T04:38:27;22.20;;;6.53;;
21038;SDS011;10678;51.002;4.786;2024-02-21T04:40:53;19.92;;;6.97;;
21038;SDS011;10678;51.002;4.786;2024-02-21T04:43:20;16.77;;;7.03;;
21038;SDS011;10678;51.002;4.786;2024-02-21T04:45:45;19.70;;;8.20;;
21038;SDS011;10678;51.002;4.786;2024-02-21T04:48:11;20.60;;;7.30;;
21038;SDS011;10678;51.002;4.786;2024-02-21T04:50:37;16.25;;;7.43;;
21038;SDS011;10678;51.002;4.786;2024-02-21T04:53:02;16.27;;;7.38;;
21038;SDS011;10678;51.002;4.786;2024-02-21T04:55:28;15.05;;;6.85;;
21038;SDS011;10678;51.002;4.786;2024-02-21T04:57:53;21.73;;;7.55;;
21038;SDS011;10678;51.002;4.786;2024-02-21T05:00:19;17.98;;;7.32;;
21038;SDS011;10678;51.002;4.786;2024-02-21T05:02:45;16.23;;;6.38;;
21038;SDS011;10678;51.002;4.786;2024-02-21T05:05:10;17.85;;;7.40;;
21038;SDS011;10678;51.002;4.786;2024-02-21T05:07:36;17.67;;;7.13;;
21038;SDS011;10678;51.002;4.786;2024-02-21T05:10:02;20.05;;;7.53;;
21038;SDS011;10678;51.002;4.786;2024-02-21T05:12:28;16.77;;;7.40;;
21038;SDS011;10678;51.002;4.786;2024-02-21T05:14:55;23.15;;;8.05;;
21038;SDS011;10678;51.002;4.786;2024-02-21T05:17:20;16.80;;;6.63;;
21038;SDS011;10678;51.002;4.786;2024-02-21T05:19:46;14.73;;;7.20;;
21038;SDS011;10678;51.002;4.786;2024-02-21T05:22:11;18.20;;;7.68;;
21038;SDS011;10678;51.002;4.786;2024-02-21T05:24:38;16.67;;;7.10;;
21038;SDS011;10678;51.002;4.786;2024-02-21T05:27:05;16.58;;;6.93;;
21038;SDS011;10678;51.002;4.786;2024-02-21T05:29:30;15.73;;;7.22;;
21038;SDS011;10678;51.002;4.786;2024-02-21T05:31:56;19.38;;;6.97;;
21038;SDS011;10678;51.002;4.786;2024-02-21T05:34:22;18.63;;;7.03;;
21038;SDS011;10678;51.002;4.786;2024-02-21T05:36:48;18.48;;;7.53;;
21038;SDS011;10678;51.002;4.786;2024-02-21T05:39:14;18.92;;;7.57;;
21038;SDS011;10678;51.002;4.786;2024-02-21T05:41:41;17.35;;;6.72;;
21038;SDS011;10678;51.002;4.786;2024-02-21T05:44:07;16.60;;;7.28;;
21038;SDS011;10678;51.002;4.786;2024-02-21T05:46:33;19.35;;;6.45;;
21038;SDS011;10678;51.002;4.786;2024-02-21T05:48:58;19.15;;;7.13;;
21038;SDS011;10678;51.002;4.786;2024-02-21T05:51:24;15.23;;;6.38;;
21038;SDS011;10678;51.002;4.786;2024-02-21T05:53:50;14.63;;;6.78;;
21038;SDS011;10678;51.002;4.786;2024-02-21T05:56:15;14.18;;;6.57;;
21038;SDS011;10678;51.002;4.786;2024-02-21T05:58:43;16.95;;;6.25;;
21038;SDS011;10678;51.002;4.786;2024-02-21T06:01:08;22.13;;;6.68;;
21038;SDS011;10678;51.002;4.786;2024-02-21T06:03:34;15.80;;;6.25;;
21038;SDS011;10678;51.002;4.786;2024-02-21T06:06:01;15.18;;;5.90;;
21038;SDS011;10678;51.002;4.786;2024-02-21T06:08:27;15.52;;;5.88;;
21038;SDS011;10678;51.002;4.786;2024-02-21T06:10:53;14.15;;;6.15;;
21038;SDS011;10678;51.002;4.786;2024-02-21T06:13:26;14.02;;;6.07;;
21038;SDS011;10678;51.002;4.786;2024-02-21T06:15:52;14.50;;;5.65;;
21038;SDS011;10678;51.002;4.786;2024-02-21T06:18:18;11.95;;;5.80;;
21038;SDS011;10678;51.002;4.786;2024-02-21T06:20:44;13.07;;;5.85;;
21038;SDS011;10678;51.002;4.786;2024-02-21T06:23:11;13.32;;;5.38;;
21038;SDS011;10678;51.002;4.786;2024-02-21T06:25:37;14.00;;;5.82;;
21038;SDS011;10678;51.002;4.786;2024-02-21T06:28:03;13.30;;;5.80;;
21038;SDS011;10678;51.002;4.786;2024-02-21T06:30:29;11.27;;;4.93;;
21038;SDS011;10678;51.002;4.786;2024-02-21T06:32:55;15.25;;;5.53;;
21038;SDS011;10678;51.002;4.786;2024-02-21T06:35:21;14.15;;;5.32;;
21038;SDS011;10678;51.002;4.786;2024-02-21T06:37:49;16.58;;;5.75;;
21038;SDS011;10678;51.002;4.786;2024-02-21T06:40:16;12.38;;;5.07;;
21038;SDS011;10678;51.002;4.786;2024-02-21T06:42:48;13.75;;;5.10;;
21038;SDS011;10678;51.002;4.786;2024-02-21T06:45:14;12.27;;;4.68;;
21038;SDS011;10678;51.002;4.786;2024-02-21T06:47:40;15.98;;;5.10;;
21038;SDS011;10678;51.002;4.786;2024-02-21T06:50:06;9.63;;;4.43;;
21038;SDS011;10678;51.002;4.786;2024-02-21T06:52:33;14.25;;;4.82;;
21038;SDS011;10678;51.002;4.786;2024-02-21T06:54:59;10.35;;;4.55;;
21038;SDS011;10678;51.002;4.786;2024-02-21T06:57:25;13.20;;;4.38;;
21038;SDS011;10678;51.002;4.786;2024-02-21T06:59:50;12.57;;;4.30;;
21038;SDS011;10678;51.002;4.786;2024-02-21T07:02:16;12.50;;;4.32;;
21038;SDS011;10678;51.002;4.786;2024-02-21T07:04:41;14.90;;;5.18;;
21038;SDS011;10678;51.002;4.786;2024-02-21T07:07:08;14.25;;;5.15;;
21038;SDS011;10678;51.002;4.786;2024-02-21T07:09:34;12.77;;;4.95;;
21038;SDS011;10678;51.002;4.786;2024-02-21T07:11:59;10.13;;;4.40;;
21038;SDS011;10678;51.002;4.786;2024-02-21T07:14:25;10.32;;;4.22;;
21038;SDS011;10678;51.002;4.786;2024-02-21T07:16:53;12.23;;;4.90;;
21038;SDS011;10678;51.002;4.786;2024-02-21T07:19:19;14.60;;;4.50;;
21038;SDS011;10678;51.002;4.786;2024-02-21T07:21:44;11.45;;;5.15;;
21038;SDS011;10678;51.002;4.786;2024-02-21T07:24:10;10.27;;;4.47;;
21038;SDS011;10678;51.002;4.786;2024-02-21T07:26:36;9.32;;;4.63;;
21038;SDS011;10678;51.002;4.786;2024-02-21T07:29:02;11.18;;;5.32;;
21038;SDS011;10678;51.002;4.786;2024-02-21T07:31:27;12.77;;;5.45;;
21038;SDS011;10678;51.002;4.786;2024-02-21T07:33:53;12.57;;;5.50;;
21038;SDS011;10678;51.002;4.786;2024-02-21T07:36:30;15.05;;;5.78;;
21038;SDS011;10678;51.002;4.786;2024-02-21T07:38:56;12.60;;;6.22;;
21038;SDS011;10678;51.002;4.786;2024-02-21T07:41:22;13.93;;;5.90;;
21038;SDS011;10678;51.002;4.786;2024-02-21T07:43:47;12.85;;;5.85;;
21038;SDS011;10678;51.002;4.786;2024-02-21T07:46:16;13.02;;;5.93;;
21038;SDS011;10678;51.002;4.786;2024-02-21T07:48:42;13.30;;;5.55;;
21038;SDS011;10678;51.002;4.786;2024-02-21T07:51:09;13.00;;;6.45;;
21038;SDS011;10678;51.002;4.786;2024-02-21T07:53:35;13.77;;;6.43;;
21038;SDS011;10678;51.002;4.786;2024-02-21T07:56:01;13.07;;;6.18;;
21038;SDS011;10678;51.002;4.786;2024-02-21T07:58:26;17.20;;;6.63;;
21038;SDS011;10678;51.002;4.786;2024-02-21T08:00:52;13.82;;;7.03;;
21038;SDS011;10678;51.002;4.786;2024-02-21T08:03:17;12.55;;;6.85;;
21038;SDS011;10678;51.002;4.786;2024-02-21T08:05:43;12.35;;;6.55;;
21038;SDS011;10678;51.002;4.786;2024-02-21T08:08:09;12.90;;;7.13;;
21038;SDS011;10678;51.002;4.786;2024-02-21T08:10:34;15.48;;;6.10;;
21038;SDS011;10678;51.002;4.786;2024-02-21T08:13:00;13.73;;;6.65;;
21038;SDS011;10678;51.002;4.786;2024-02-21T08:15:25;11.60;;;6.45;;
21038;SDS011;10678;51.002;4.786;2024-02-21T08:17:54;14.15;;;6.53;;
21038;SDS011;10678;51.002;4.786;2024-02-21T08:20:24;14.55;;;6.72;;
21038;SDS011;10678;51.002;4.786;2024-02-21T08:22:49;11.18;;;6.95;;
21038;SDS011;10678;51.002;4.786;2024-02-21T08:25:15;14.15;;;6.80;;
21038;SDS011;10678;51.002;4.786;2024-02-21T08:27:40;15.35;;;7.82;;
21038;SDS011;10678;51.002;4.786;2024-02-21T08:30:06;15.50;;;7.68;;
21038;SDS011;10678;51.002;4.786;2024-02-21T08:32:33;12.23;;;7.10;;
21038;SDS011;10678;51.002;4.786;2024-02-21T08:35:00;17.00;;;7.70;;
21038;SDS011;10678;51.002;4.786;2024-02-21T08:37:27;11.07;;;6.50;;
21038;SDS011;10678;51.002;4.786;2024-02-21T08:39:52;11.82;;;6.68;;
21038;SDS011;10678;51.002;4.786;2024-02-21T08:42:18;18.48;;;7.35;;
21038;SDS011;10678;51.002;4.786;2024-02-21T08:44:44;16.38;;;7.35;;
21038;SDS011;10678;51.002;4.786;2024-02-21T08:47:10;14.60;;;6.20;;
21038;SDS011;10678;51.002;4.786;2024-02-21T08:49:36;11.82;;;6.22;;
21038;SDS011;10678;51.002;4.786;2024-02-21T08:52:02;15.13;;;6.38;;
21038;SDS011;10678;51.002;4.786;2024-02-21T08:54:28;12.63;;;6.90;;
21038;SDS011;10678;51.002;4.786;2024-02-21T08:56:54;16.38;;;6.15;;
21038;SDS011;10678;51.002;4.786;2024-02-21T08:59:20;15.18;;;6.45;;
21038;SDS011;10678;51.002;4.786;2024-02-21T09:01:46;18.98;;;5.80;;
21038;SDS011;10678;51.002;4.786;2024-02-21T09:04:11;13.90;;;5.93;;
21038;SDS011;10678;51.002;4.786;2024-02-21T09:06:37;14.88;;;5.63;;
21038;SDS011;10678;51.002;4.786;2024-02-21T09:09:07;19.00;;;5.78;;
21038;SDS011;10678;51.002;4.786;2024-02-21T09:11:35;12.32;;;5.68;;
21038;SDS011;10678;51.002;4.786;2024-02-21T09:14:01;11.77;;;4.97;;
21038;SDS011;10678;51.002;4.786;2024-02-21T09:16:28;12.00;;;5.38;;
21038;SDS011;10678;51.002;4.786;2024-02-21T09:18:56;10.98;;;4.53;;
21038;SDS011;10678;51.002;4.786;2024-02-21T09:21:22;13.07;;;4.68;;
21038;SDS011;10678;51.002;4.786;2024-02-21T09:23:48;11.85;;;5.07;;
21038;SDS011;10678;51.002;4.786;2024-02-21T09:26:13;12.70;;;4.40;;
21038;SDS011;10678;51.002;4.786;2024-02-21T09:28:41;13.55;;;4.22;;
21038;SDS011;10678;51.002;4.786;2024-02-21T09:31:07;10.27;;;4.30;;
21038;SDS011;10678;51.002;4.786;2024-02-21T09:33:32;9.40;;;4.03;;
21038;SDS011;10678;51.002;4.786;2024-02-21T09:35:58;10.10;;;3.97;;
21038;SDS011;10678;51.002;4.786;2024-02-21T09:38:24;12.32;;;4.00;;
21038;SDS011;10678;51.002;4.786;2024-02-21T09:41:32;9.45;;;3.65;;
21038;SDS011;10678;51.002;4.786;2024-02-21T09:43:50;10.50;;;3.33;;
21038;SDS011;10678;51.002;4.786;2024-02-21T09:46:19;8.23;;;3.40;;
21038;SDS011;10678;51.002;4.786;2024-02-21T09:49:02;9.20;;;3.63;;
21038;SDS011;10678;51.002;4.786;2024-02-21T09:52:08;17.35;;;3.72;;
21038;SDS011;10678;51.002;4.786;2024-02-21T09:54:36;12.07;;;3.85;;
21038;SDS011;10678;51.002;4.786;2024-02-21T09:57:03;10.40;;;3.70;;
21038;SDS011;10678;51.002;4.786;2024-02-21T09:59:31;8.82;;;3.42;;
21038;SDS011;10678;51.002;4.786;2024-02-21T10:01:57;8.98;;;3.50;;
21038;SDS011;10678;51.002;4.786;2024-02-21T10:04:26;7.28;;;2.90;;
21038;SDS011;10678;51.002;4.786;2024-02-21T10:06:55;8.93;;;3.00;;
21038;SDS011;10678;51.002;4.786;2024-02-21T10:09:25;12.00;;;4.30;;
21038;SDS011;10678;51.002;4.786;2024-02-21T10:12:15;8.98;;;2.90;;
21038;SDS011;10678;51.002;4.786;2024-02-21T10:14:44;11.23;;;3.47;;
21038;SDS011;10678;51.002;4.786;2024-02-21T10:17:17;7.43;;;2.95;;
21038;SDS011;10678;51.002;4.786;2024-02-21T10:19:45;9.70;;;3.15;;
21038;SDS011;10678;51.002;4.786;2024-02-21T10:22:12;9.43;;;3.28;;
21038;SDS011;10678;51.002;4.786;2024-02-21T10:24:40;10.52;;;3.65;;
21038;SDS011;10678;51.002;4.786;2024-02-21T10:27:09;5.70;;;2.83;;
21038;SDS011;10678;51.002;4.786;2024-02-21T10:29:38;11.13;;;3.08;;
21038;SDS011;10678;51.002;4.786;2024-02-21T10:32:07;8.27;;;2.65;;
21038;SDS011;10678;51.002;4.786;2024-02-21T10:34:34;8.18;;;2.97;;
21038;SDS011;10678;51.002;4.786;2024-02-21T10:37:01;11.40;;;3.45;;
21038;SDS011;10678;51.002;4.786;2024-02-21T10:39:28;11.27;;;2.72;;
21038;SDS011;10678;51.002;4.786;2024-02-21T10:41:54;9.45;;;2.78;;
21038;SDS011;10678;51.002;4.786;2024-02-21T10:44:24;9.13;;;2.67;;
21038;SDS011;10678;51.002;4.786;2024-02-21T10:46:53;11.38;;;3.03;;
21038;SDS011;10678;51.002;4.786;2024-02-21T10:49:22;6.50;;;2.75;;
21038;SDS011;10678;51.002;4.786;2024-02-21T10:51:50;11.13;;;2.83;;
21038;SDS011;10678;51.002;4.786;2024-02-21T10:54:28;7.82;;;2.85;;
21038;SDS011;10678;51.002;4.786;2024-02-21T10:57:04;10.02;;;3.05;;
21038;SDS011;10678;51.002;4.786;2024-02-21T10:59:32;11.48;;;3.42;;
21038;SDS011;10678;51.002;4.786;2024-02-21T11:01:58;9.77;;;2.97;;
21038;SDS011;10678;51.002;4.786;2024-02-21T11:04:24;8.38;;;2.78;;
21038;SDS011;10678;51.002;4.786;2024-02-21T11:06:50;10.77;;;3.05;;
21038;SDS011;10678;51.002;4.786;2024-02-21T11:09:16;11.77;;;3.28;;
21038;SDS011;10678;51.002;4.786;2024-02-21T11:11:43;8.00;;;2.85;;
21038;SDS011;10678;51.002;4.786;2024-02-21T11:14:19;10.18;;;3.63;;
21038;SDS011;10678;51.002;4.786;2024-02-21T11:16:46;8.80;;;3.15;;
21038;SDS011;10678;51.002;4.786;2024-02-21T11:21:44;8.63;;;2.70;;
21038;SDS011;10678;51.002;4.786;2024-02-21T11:24:10;9.25;;;2.70;;
21038;SDS011;10678;51.002;4.786;2024-02-21T11:26:36;8.38;;;2.80;;
21038;SDS011;10678;51.002;4.786;2024-02-21T11:29:03;7.50;;;2.63;;
21038;SDS011;10678;51.002;4.786;2024-02-21T11:31:40;10.73;;;2.80;;
21038;SDS011;10678;51.002;4.786;2024-02-21T11:34:10;12.57;;;2.63;;
21038;SDS011;10678;51.002;4.786;2024-02-21T11:36:36;13.68;;;3.58;;
21038;SDS011;10678;51.002;4.786;2024-02-21T11:39:32;8.25;;;2.50;;
21038;SDS011;10678;51.002;4.786;2024-02-21T11:42:04;7.40;;;2.47;;
21038;SDS011;10678;51.002;4.786;2024-02-21T11:44:33;8.50;;;2.38;;
21038;SDS011;10678;51.002;4.786;2024-02-21T11:46:59;8.90;;;2.50;;
21038;SDS011;10678;51.002;4.786;2024-02-21T11:49:25;8.32;;;2.13;;
21038;SDS011;10678;51.002;4.786;2024-02-21T11:51:59;6.07;;;2.15;;
21038;SDS011;10678;51.002;4.786;2024-02-21T11:54:26;12.60;;;2.15;;
21038;SDS011;10678;51.002;4.786;2024-02-21T11:56:52;8.20;;;2.38;;
21038;SDS011;10678;51.002;4.786;2024-02-21T11:59:18;8.85;;;2.65;;
21038;SDS011;10678;51.002;4.786;2024-02-21T12:01:44;10.32;;;2.08;;
21038;SDS011;10678;51.002;4.786;2024-02-21T12:04:10;9.75;;;2.20;;
21038;SDS011;10678;51.002;4.786;2024-02-21T12:06:35;7.60;;;2.00;;
21038;SDS011;10678;51.002;4.786;2024-02-21T12:09:01;9.50;;;2.20;;
21038;SDS011;10678;51.002;4.786;2024-02-21T12:11:27;8.15;;;2.30;;
21038;SDS011;10678;51.002;4.786;2024-02-21T12:14:02;5.47;;;2.00;;
21038;SDS011;10678;51.002;4.786;2024-02-21T12:16:30;7.32;;;2.10;;
21038;SDS011;10678;51.002;4.786;2024-02-21T12:18:59;7.18;;;2.05;;
21038;SDS011;10678;51.002;4.786;2024-02-21T12:21:31;6.70;;;2.20;;
21038;SDS011;10678;51.002;4.786;2024-02-21T12:27:00;7.20;;;2.17;;
21038;SDS011;10678;51.002;4.786;2024-02-21T12:29:28;5.60;;;1.75;;
21038;SDS011;10678;51.002;4.786;2024-02-21T12:31:55;6.88;;;1.98;;
21038;SDS011;10678;51.002;4.786;2024-02-21T12:34:20;8.38;;;2.20;;
21038;SDS011;10678;51.002;4.786;2024-02-21T12:36:47;7.43;;;2.53;;
21038;SDS011;10678;51.002;4.786;2024-02-21T12:39:13;7.30;;;2.15;;
21038;SDS011;10678;51.002;4.786;2024-02-21T12:41:39;5.70;;;1.98;;
21038;SDS011;10678;51.002;4.786;2024-02-21T12:44:05;7.20;;;2.30;;
21038;SDS011;10678;51.002;4.786;2024-02-21T12:46:36;4.85;;;2.20;;
21038;SDS011;10678;51.002;4.786;2024-02-21T12:49:02;6.13;;;2.00;;
21038;SDS011;10678;51.002;4.786;2024-02-21T12:51:28;6.18;;;2.00;;
21038;SDS011;10678;51.002;4.786;2024-02-21T12:53:54;7.07;;;2.17;;
21038;SDS011;10678;51.002;4.786;2024-02-21T12:56:20;7.82;;;2.35;;
21038;SDS011;10678;51.002;4.786;2024-02-21T12:58:46;10.38;;;2.10;;
21038;SDS011;10678;51.002;4.786;2024-02-21T13:01:11;7.55;;;2.50;;
21038;SDS011;10678;51.002;4.786;2024-02-21T13:03:37;7.20;;;2.30;;
21038;SDS011;10678;51.002;4.786;2024-02-21T13:06:03;6.88;;;2.42;;
21038;SDS011;10678;51.002;4.786;2024-02-21T13:08:29;7.20;;;2.20;;
21038;SDS011;10678;51.002;4.786;2024-02-21T13:10:55;7.15;;;2.33;;
21038;SDS011;10678;51.002;4.786;2024-02-21T13:13:21;8.38;;;2.65;;
21038;SDS011;10678;51.002;4.786;2024-02-21T13:15:46;7.68;;;2.35;;
21038;SDS011;10678;51.002;4.786;2024-02-21T13:18:12;8.05;;;2.65;;
21038;SDS011;10678;51.002;4.786;2024-02-21T13:20:38;9.00;;;2.40;;
21038;SDS011;10678;51.002;4.786;2024-02-21T13:23:03;10.63;;;2.05;;
21038;SDS011;10678;51.002;4.786;2024-02-21T13:25:29;9.07;;;3.05;;
21038;SDS011;10678;51.002;4.786;2024-02-21T13:27:55;8.57;;;2.47;;
21038;SDS011;10678;51.002;4.786;2024-02-21T13:30:21;9.00;;;2.50;;
21038;SDS011;10678;51.002;4.786;2024-02-21T13:32:47;8.70;;;2.90;;
21038;SDS011;10678;51.002;4.786;2024-02-21T13:35:12;9.70;;;2.30;;
21038;SDS011;10678;51.002;4.786;2024-02-21T13:37:39;9.27;;;2.58;;
21038;SDS011;10678;51.002;4.786;2024-02-21T13:40:05;6.97;;;2.45;;
21038;SDS011;10678;51.002;4.786;2024-02-21T13:42:34;6.53;;;2.28;;
21038;SDS011;10678;51.002;4.786;2024-02-21T13:44:59;6.03;;;2.30;;
21038;SDS011;10678;51.002;4.786;2024-02-21T13:47:26;7.50;;;2.63;;
21038;SDS011;10678;51.002;4.786;2024-02-21T13:49:51;9.35;;;2.22;;
21038;SDS011;10678;51.002;4.786;2024-02-21T13:52:18;11.55;;;2.53;;
21038;SDS011;10678;51.002;4.786;2024-02-21T13:54:47;9.07;;;2.80;;
21038;SDS011;10678;51.002;4.786;2024-02-21T13:57:13;6.78;;;2.85;;
21038;SDS011;10678;51.002;4.786;2024-02-21T13:59:39;7.88;;;2.60;;
21038;SDS011;10678;51.002;4.786;2024-02-21T14:02:05;12.88;;;3.08;;
21038;SDS011;10678;51.002;4.786;2024-02-21T14:04:34;8.65;;;2.50;;
21038;SDS011;10678;51.002;4.786;2024-02-21T14:07:00;8.75;;;2.85;;
21038;SDS011;10678;51.002;4.786;2024-02-21T14:09:26;8.88;;;2.53;;
21038;SDS011;10678;51.002;4.786;2024-02-21T14:11:52;8.55;;;2.70;;
21038;SDS011;10678;51.002;4.786;2024-02-21T14:14:18;11.40;;;2.63;;
21038;SDS011;10678;51.002;4.786;2024-02-21T14:16:44;7.35;;;2.70;;
21038;SDS011;10678;51.002;4.786;2024-02-21T14:19:10;11.98;;;3.08;;
21038;SDS011;10678;51.002;4.786;2024-02-21T14:21:36;9.85;;;3.40;;
21038;SDS011;10678;51.002;4.786;2024-02-21T14:24:05;8.85;;;3.20;;
21038;SDS011;10678;51.002;4.786;2024-02-21T14:26:31;12.70;;;3.17;;
21038;SDS011;10678;51.002;4.786;2024-02-21T14:28:57;7.50;;;2.90;;
21038;SDS011;10678;51.002;4.786;2024-02-21T14:31:23;10.43;;;3.67;;
21038;SDS011;10678;51.002;4.786;2024-02-21T14:33:49;9.05;;;3.63;;
21038;SDS011;10678;51.002;4.786;2024-02-21T14:36:14;8.30;;;3.40;;
21038;SDS011;10678;51.002;4.786;2024-02-21T14:38:43;14.23;;;3.50;;
21038;SDS011;10678;51.002;4.786;2024-02-21T14:41:09;8.88;;;3.50;;